sensor_id;sensor_type;location;lat;lon;timestamp;temperature;humidity
61016;DHT22;46902;52.920;6.536;2023-08-17T00:01:24;17.40;99.90
61016;DHT22;46902;52.920;6.536;2023-08-17T00:03:50;17.40;99.90
61016;DHT22;46902;52.920;6.536;2023-08-17T00:06:15;17.40;99.90
61016;DHT22;46902;52.920;6.536;2023-08-17T00:08:42;17.40;99.90
61016;DHT22;46902;52.920;6.536;2023-08-17T00:11:08;17.40;99.90
61016;DHT22;46902;52.920;6.536;2023-08-17T00:13:34;17.40;99.90
61016;DHT22;46902;52.920;6.536;2023-08-17T00:16:00;17.50;99.90
61016;DHT22;46902;52.920;6.536;2023-08-17T00:18:26;17.40;99.90
61016;DHT22;46902;52.920;6.536;2023-08-17T00:20:52;17.50;99.90
61016;DHT22;46902;52.920;6.536;2023-08-17T00:23:17;17.40;99.90
61016;DHT22;46902;52.920;6.536;2023-08-17T00:25:43;17.40;99.90
61016;DHT22;46902;52.920;6.536;2023-08-17T00:28:09;17.40;99.90
61016;DHT22;46902;52.920;6.536;2023-08-17T00:30:34;17.40;99.90
61016;DHT22;46902;52.920;6.536;2023-08-17T00:33:02;17.40;99.90
61016;DHT22;46902;52.920;6.536;2023-08-17T00:35:28;17.40;99.90
61016;DHT22;46902;52.920;6.536;2023-08-17T00:37:53;17.40;99.90
61016;DHT22;46902;52.920;6.536;2023-08-17T00:40:19;17.40;99.90
61016;DHT22;46902;52.920;6.536;2023-08-17T00:42:45;17.40;99.90
61016;DHT22;46902;52.920;6.536;2023-08-17T00:45:11;17.40;99.90
61016;DHT22;46902;52.920;6.536;2023-08-17T00:47:36;17.30;99.90
61016;DHT22;46902;52.920;6.536;2023-08-17T00:50:02;17.30;99.90
61016;DHT22;46902;52.920;6.536;2023-08-17T00:52:30;17.30;99.90
61016;DHT22;46902;52.920;6.536;2023-08-17T00:54:57;17.30;99.90
61016;DHT22;46902;52.920;6.536;2023-08-17T00:57:23;17.30;99.90
61016;DHT22;46902;52.920;6.536;2023-08-17T00:59:50;17.30;99.90
61016;DHT22;46902;52.920;6.536;2023-08-17T01:02:17;17.20;99.90
61016;DHT22;46902;52.920;6.536;2023-08-17T01:04:43;17.20;99.90
61016;DHT22;46902;52.920;6.536;2023-08-17T01:07:08;17.20;99.90
61016;DHT22;46902;52.920;6.536;2023-08-17T01:09:34;17.20;99.90
61016;DHT22;46902;52.920;6.536;2023-08-17T01:12:23;17.10;99.90
61016;DHT22;46902;52.920;6.536;2023-08-17T01:15:09;17.20;99.90
61016;DHT22;46902;52.920;6.536;2023-08-17T01:17:43;17.10;99.90
61016;DHT22;46902;52.920;6.536;2023-08-17T01:20:11;17.10;99.90
61016;DHT22;46902;52.920;6.536;2023-08-17T01:22:41;17.00;99.90
61016;DHT22;46902;52.920;6.536;2023-08-17T01:25:08;17.00;99.90
61016;DHT22;46902;52.920;6.536;2023-08-17T01:27:40;17.00;99.90
61016;DHT22;46902;52.920;6.536;2023-08-17T01:30:08;17.00;99.90
61016;DHT22;46902;52.920;6.536;2023-08-17T01:37:50;16.90;99.90
61016;DHT22;46902;52.920;6.536;2023-08-17T01:40:17;16.90;99.90
61016;DHT22;46902;52.920;6.536;2023-08-17T01:42:43;16.90;99.90
61016;DHT22;46902;52.920;6.536;2023-08-17T01:45:09;16.80;99.90
61016;DHT22;46902;52.920;6.536;2023-08-17T01:47:36;16.80;99.90
61016;DHT22;46902;52.920;6.536;2023-08-17T01:50:01;16.80;99.90
61016;DHT22;46902;52.920;6.536;2023-08-17T01:52:28;16.80;99.90
61016;DHT22;46902;52.920;6.536;2023-08-17T01:54:54;16.80;99.90
61016;DHT22;46902;52.920;6.536;2023-08-17T01:57:19;16.80;99.90
61016;DHT22;46902;52.920;6.536;2023-08-17T01:59:45;16.70;99.90
61016;DHT22;46902;52.920;6.536;2023-08-17T02:02:11;16.80;99.90
61016;DHT22;46902;52.920;6.536;2023-08-17T02:04:40;16.70;99.90
61016;DHT22;46902;52.920;6.536;2023-08-17T02:07:05;16.70;99.90
61016;DHT22;46902;52.920;6.536;2023-08-17T02:09:31;16.70;99.90
61016;DHT22;46902;52.920;6.536;2023-08-17T02:11:56;16.70;99.90
61016;DHT22;46902;52.920;6.536;2023-08-17T02:14:22;16.60;99.90
61016;DHT22;46902;52.920;6.536;2023-08-17T02:16:47;16.60;99.90
61016;DHT22;46902;52.920;6.536;2023-08-17T02:19:14;16.70;99.90
61016;DHT22;46902;52.920;6.536;2023-08-17T02:21:40;16.70;99.90
61016;DHT22;46902;52.920;6.536;2023-08-17T02:24:05;16.60;99.90
61016;DHT22;46902;52.920;6.536;2023-08-17T02:26:31;16.60;99.90
61016;DHT22;46902;52.920;6.536;2023-08-17T02:28:57;16.60;99.90
61016;DHT22;46902;52.920;6.536;2023-08-17T02:31:22;16.60;99.90
61016;DHT22;46902;52.920;6.536;2023-08-17T02:33:48;16.60;99.90
61016;DHT22;46902;52.920;6.536;2023-08-17T02:36:14;16.60;99.90
61016;DHT22;46902;52.920;6.536;2023-08-17T02:38:39;16.50;99.90
61016;DHT22;46902;52.920;6.536;2023-08-17T02:41:05;16.50;99.90
61016;DHT22;46902;52.920;6.536;2023-08-17T02:43:30;16.50;99.90
61016;DHT22;46902;52.920;6.536;2023-08-17T02:45:56;16.50;99.90
61016;DHT22;46902;52.920;6.536;2023-08-17T02:48:22;16.50;99.90
61016;DHT22;46902;52.920;6.536;2023-08-17T02:50:47;16.40;99.90
61016;DHT22;46902;52.920;6.536;2023-08-17T02:53:13;16.40;99.90
61016;DHT22;46902;52.920;6.536;2023-08-17T02:55:39;16.40;99.90
61016;DHT22;46902;52.920;6.536;2023-08-17T02:58:04;16.40;99.90
61016;DHT22;46902;52.920;6.536;2023-08-17T03:00:30;16.40;99.90
61016;DHT22;46902;52.920;6.536;2023-08-17T03:02:55;16.40;99.90
61016;DHT22;46902;52.920;6.536;2023-08-17T03:05:21;16.40;99.90
61016;DHT22;46902;52.920;6.536;2023-08-17T03:07:46;16.40;99.90
61016;DHT22;46902;52.920;6.536;2023-08-17T03:10:12;16.30;99.90
61016;DHT22;46902;52.920;6.536;2023-08-17T03:12:38;16.40;99.90
61016;DHT22;46902;52.920;6.536;2023-08-17T03:15:06;16.40;99.90
61016;DHT22;46902;52.920;6.536;2023-08-17T03:17:31;16.30;99.90
61016;DHT22;46902;52.920;6.536;2023-08-17T03:19:57;16.30;99.90
61016;DHT22;46902;52.920;6.536;2023-08-17T03:22:24;16.40;99.90
61016;DHT22;46902;52.920;6.536;2023-08-17T03:24:50;16.30;99.90
61016;DHT22;46902;52.920;6.536;2023-08-17T03:27:16;16.40;99.90
61016;DHT22;46902;52.920;6.536;2023-08-17T03:29:41;16.30;99.90
61016;DHT22;46902;52.920;6.536;2023-08-17T03:32:07;16.30;99.90
61016;DHT22;46902;52.920;6.536;2023-08-17T03:34:32;16.30;99.90
61016;DHT22;46902;52.920;6.536;2023-08-17T03:36:58;16.30;99.90
61016;DHT22;46902;52.920;6.536;2023-08-17T03:39:23;16.30;99.90
61016;DHT22;46902;52.920;6.536;2023-08-17T03:41:49;16.30;99.90
61016;DHT22;46902;52.920;6.536;2023-08-17T03:44:15;16.30;99.90
61016;DHT22;46902;52.920;6.536;2023-08-17T03:46:41;16.30;99.90
61016;DHT22;46902;52.920;6.536;2023-08-17T03:49:07;16.30;99.90
61016;DHT22;46902;52.920;6.536;2023-08-17T03:51:32;16.30;99.90
61016;DHT22;46902;52.920;6.536;2023-08-17T03:53:58;16.20;99.90
61016;DHT22;46902;52.920;6.536;2023-08-17T03:56:24;16.30;99.90
61016;DHT22;46902;52.920;6.536;2023-08-17T03:58:50;16.20;99.90
61016;DHT22;46902;52.920;6.536;2023-08-17T04:01:16;16.30;99.90
61016;DHT22;46902;52.920;6.536;2023-08-17T04:03:42;16.30;99.90
61016;DHT22;46902;52.920;6.536;2023-08-17T04:06:08;16.30;99.90
61016;DHT22;46902;52.920;6.536;2023-08-17T04:08:36;16.30;99.90
61016;DHT22;46902;52.920;6.536;2023-08-17T04:11:03;16.30;99.90
61016;DHT22;46902;52.920;6.536;2023-08-17T04:13:29;16.30;99.90
61016;DHT22;46902;52.920;6.536;2023-08-17T04:15:54;16.30;99.90
61016;DHT22;46902;52.920;6.536;2023-08-17T04:18:20;16.30;99.90
61016;DHT22;46902;52.920;6.536;2023-08-17T04:20:46;16.30;99.90
61016;DHT22;46902;52.920;6.536;2023-08-17T04:23:11;16.30;99.90
61016;DHT22;46902;52.920;6.536;2023-08-17T04:25:37;16.40;99.90
61016;DHT22;46902;52.920;6.536;2023-08-17T04:28:03;16.40;99.90
61016;DHT22;46902;52.920;6.536;2023-08-17T04:30:28;16.40;99.90
61016;DHT22;46902;52.920;6.536;2023-08-17T04:32:54;16.40;99.90
61016;DHT22;46902;52.920;6.536;2023-08-17T04:35:20;16.40;99.90
61016;DHT22;46902;52.920;6.536;2023-08-17T04:37:46;16.40;99.90
61016;DHT22;46902;52.920;6.536;2023-08-17T04:40:13;16.40;99.90
61016;DHT22;46902;52.920;6.536;2023-08-17T04:42:39;16.50;99.90
61016;DHT22;46902;52.920;6.536;2023-08-17T04:45:05;16.50;99.90
61016;DHT22;46902;52.920;6.536;2023-08-17T04:47:31;16.50;99.90
61016;DHT22;46902;52.920;6.536;2023-08-17T04:49:56;16.50;99.90
61016;DHT22;46902;52.920;6.536;2023-08-17T04:52:22;16.50;99.90
61016;DHT22;46902;52.920;6.536;2023-08-17T04:54:47;16.60;99.90
61016;DHT22;46902;52.920;6.536;2023-08-17T04:57:13;16.60;99.90
61016;DHT22;46902;52.920;6.536;2023-08-17T04:59:39;16.60;99.90
61016;DHT22;46902;52.920;6.536;2023-08-17T05:02:05;16.60;99.90
61016;DHT22;46902;52.920;6.536;2023-08-17T05:04:31;16.60;99.90
61016;DHT22;46902;52.920;6.536;2023-08-17T05:06:56;16.60;99.90
61016;DHT22;46902;52.920;6.536;2023-08-17T05:09:22;16.70;99.90
61016;DHT22;46902;52.920;6.536;2023-08-17T05:11:48;16.70;99.90
61016;DHT22;46902;52.920;6.536;2023-08-17T05:14:13;16.70;99.90
61016;DHT22;46902;52.920;6.536;2023-08-17T05:16:39;16.70;99.90
61016;DHT22;46902;52.920;6.536;2023-08-17T05:19:05;16.70;99.90
61016;DHT22;46902;52.920;6.536;2023-08-17T05:21:30;16.70;99.90
61016;DHT22;46902;52.920;6.536;2023-08-17T05:23:56;16.80;99.90
61016;DHT22;46902;52.920;6.536;2023-08-17T05:26:22;16.70;99.90
61016;DHT22;46902;52.920;6.536;2023-08-17T05:28:47;16.80;99.90
61016;DHT22;46902;52.920;6.536;2023-08-17T05:31:13;16.70;99.90
61016;DHT22;46902;52.920;6.536;2023-08-17T05:33:39;16.80;99.90
61016;DHT22;46902;52.920;6.536;2023-08-17T05:36:07;16.80;99.90
61016;DHT22;46902;52.920;6.536;2023-08-17T05:38:32;16.80;99.90
61016;DHT22;46902;52.920;6.536;2023-08-17T05:40:58;16.80;99.90
61016;DHT22;46902;52.920;6.536;2023-08-17T05:43:25;16.80;99.90
61016;DHT22;46902;52.920;6.536;2023-08-17T05:45:51;16.80;99.90
61016;DHT22;46902;52.920;6.536;2023-08-17T05:48:19;16.80;99.90
61016;DHT22;46902;52.920;6.536;2023-08-17T05:50:46;16.90;99.90
61016;DHT22;46902;52.920;6.536;2023-08-17T05:53:12;16.90;99.90
61016;DHT22;46902;52.920;6.536;2023-08-17T05:55:37;16.90;99.90
61016;DHT22;46902;52.920;6.536;2023-08-17T05:58:03;16.90;99.90
61016;DHT22;46902;52.920;6.536;2023-08-17T06:00:29;16.90;99.90
61016;DHT22;46902;52.920;6.536;2023-08-17T06:02:55;16.90;99.90
61016;DHT22;46902;52.920;6.536;2023-08-17T06:05:26;16.90;99.90
61016;DHT22;46902;52.920;6.536;2023-08-17T06:07:52;16.90;99.90
61016;DHT22;46902;52.920;6.536;2023-08-17T06:10:18;17.00;99.90
61016;DHT22;46902;52.920;6.536;2023-08-17T06:12:44;17.00;99.90
61016;DHT22;46902;52.920;6.536;2023-08-17T06:15:10;17.00;99.90
61016;DHT22;46902;52.920;6.536;2023-08-17T06:17:35;16.90;99.90
61016;DHT22;46902;52.920;6.536;2023-08-17T06:20:01;16.90;99.90
61016;DHT22;46902;52.920;6.536;2023-08-17T06:22:28;16.90;99.90
61016;DHT22;46902;52.920;6.536;2023-08-17T06:24:53;17.00;99.90
61016;DHT22;46902;52.920;6.536;2023-08-17T06:27:19;17.00;99.90
61016;DHT22;46902;52.920;6.536;2023-08-17T06:29:45;17.00;99.90
61016;DHT22;46902;52.920;6.536;2023-08-17T06:32:10;17.00;99.90
61016;DHT22;46902;52.920;6.536;2023-08-17T06:34:36;17.00;99.90
61016;DHT22;46902;52.920;6.536;2023-08-17T06:37:03;17.00;99.90
61016;DHT22;46902;52.920;6.536;2023-08-17T06:39:29;17.00;99.90
61016;DHT22;46902;52.920;6.536;2023-08-17T06:41:54;17.10;99.90
61016;DHT22;46902;52.920;6.536;2023-08-17T06:44:20;17.10;99.90
61016;DHT22;46902;52.920;6.536;2023-08-17T06:46:46;17.10;99.90
61016;DHT22;46902;52.920;6.536;2023-08-17T06:49:12;17.20;99.90
61016;DHT22;46902;52.920;6.536;2023-08-17T06:51:38;17.20;99.90
61016;DHT22;46902;52.920;6.536;2023-08-17T06:54:06;17.30;99.90
61016;DHT22;46902;52.920;6.536;2023-08-17T06:56:32;17.30;99.90
61016;DHT22;46902;52.920;6.536;2023-08-17T06:58:57;17.30;99.90
61016;DHT22;46902;52.920;6.536;2023-08-17T07:01:23;17.40;99.90
61016;DHT22;46902;52.920;6.536;2023-08-17T07:03:48;17.50;99.90
61016;DHT22;46902;52.920;6.536;2023-08-17T07:06:14;17.40;99.90
61016;DHT22;46902;52.920;6.536;2023-08-17T07:08:40;17.50;99.90
61016;DHT22;46902;52.920;6.536;2023-08-17T07:11:05;17.60;99.90
61016;DHT22;46902;52.920;6.536;2023-08-17T07:13:31;17.60;99.90
61016;DHT22;46902;52.920;6.536;2023-08-17T07:15:57;17.60;99.90
61016;DHT22;46902;52.920;6.536;2023-08-17T07:18:23;17.70;99.90
61016;DHT22;46902;52.920;6.536;2023-08-17T07:20:48;17.60;99.90
61016;DHT22;46902;52.920;6.536;2023-08-17T07:23:15;17.60;99.90
61016;DHT22;46902;52.920;6.536;2023-08-17T07:25:41;17.70;99.90
61016;DHT22;46902;52.920;6.536;2023-08-17T07:28:06;17.70;99.90
61016;DHT22;46902;52.920;6.536;2023-08-17T07:30:32;17.70;99.90
61016;DHT22;46902;52.920;6.536;2023-08-17T07:32:57;17.80;99.90
61016;DHT22;46902;52.920;6.536;2023-08-17T07:35:23;18.00;99.90
61016;DHT22;46902;52.920;6.536;2023-08-17T07:37:49;18.10;99.90
61016;DHT22;46902;52.920;6.536;2023-08-17T07:40:14;18.10;99.90
61016;DHT22;46902;52.920;6.536;2023-08-17T07:42:40;18.20;99.90
61016;DHT22;46902;52.920;6.536;2023-08-17T07:45:06;18.30;99.90
61016;DHT22;46902;52.920;6.536;2023-08-17T07:47:34;18.30;99.90
61016;DHT22;46902;52.920;6.536;2023-08-17T07:50:00;18.30;99.90
61016;DHT22;46902;52.920;6.536;2023-08-17T07:52:25;18.30;99.90
61016;DHT22;46902;52.920;6.536;2023-08-17T07:54:51;18.30;99.90
61016;DHT22;46902;52.920;6.536;2023-08-17T07:57:17;18.30;99.90
61016;DHT22;46902;52.920;6.536;2023-08-17T07:59:42;18.30;99.90
61016;DHT22;46902;52.920;6.536;2023-08-17T08:02:08;18.40;99.90
61016;DHT22;46902;52.920;6.536;2023-08-17T08:04:33;18.40;99.90
61016;DHT22;46902;52.920;6.536;2023-08-17T08:06:59;18.40;99.90
61016;DHT22;46902;52.920;6.536;2023-08-17T08:09:24;18.50;99.90
61016;DHT22;46902;52.920;6.536;2023-08-17T08:11:50;18.50;99.90
61016;DHT22;46902;52.920;6.536;2023-08-17T08:14:16;18.60;99.90
61016;DHT22;46902;52.920;6.536;2023-08-17T08:16:42;18.60;99.90
61016;DHT22;46902;52.920;6.536;2023-08-17T08:19:08;18.70;99.90
61016;DHT22;46902;52.920;6.536;2023-08-17T08:21:33;18.80;99.90
61016;DHT22;46902;52.920;6.536;2023-08-17T08:23:59;18.90;99.90
61016;DHT22;46902;52.920;6.536;2023-08-17T08:26:24;18.90;99.90
61016;DHT22;46902;52.920;6.536;2023-08-17T08:28:50;19.00;99.90
61016;DHT22;46902;52.920;6.536;2023-08-17T08:31:15;19.10;99.90
61016;DHT22;46902;52.920;6.536;2023-08-17T08:33:41;19.20;99.90
61016;DHT22;46902;52.920;6.536;2023-08-17T08:36:07;19.20;99.90
61016;DHT22;46902;52.920;6.536;2023-08-17T08:38:33;19.40;99.90
61016;DHT22;46902;52.920;6.536;2023-08-17T08:40:58;19.50;99.90
61016;DHT22;46902;52.920;6.536;2023-08-17T08:43:24;19.70;99.90
61016;DHT22;46902;52.920;6.536;2023-08-17T08:45:51;19.80;99.90
61016;DHT22;46902;52.920;6.536;2023-08-17T08:48:18;19.90;99.90
61016;DHT22;46902;52.920;6.536;2023-08-17T08:50:45;20.00;99.90
61016;DHT22;46902;52.920;6.536;2023-08-17T08:53:15;20.10;99.90
61016;DHT22;46902;52.920;6.536;2023-08-17T08:56:00;20.20;99.90
61016;DHT22;46902;52.920;6.536;2023-08-17T08:58:27;20.20;99.90
61016;DHT22;46902;52.920;6.536;2023-08-17T09:00:54;20.00;99.90
61016;DHT22;46902;52.920;6.536;2023-08-17T09:03:20;20.00;99.90
61016;DHT22;46902;52.920;6.536;2023-08-17T09:05:50;19.90;99.90
61016;DHT22;46902;52.920;6.536;2023-08-17T09:08:25;19.90;99.90
61016;DHT22;46902;52.920;6.536;2023-08-17T09:10:51;19.80;99.90
61016;DHT22;46902;52.920;6.536;2023-08-17T09:13:17;19.70;99.90
61016;DHT22;46902;52.920;6.536;2023-08-17T09:15:42;19.70;99.90
61016;DHT22;46902;52.920;6.536;2023-08-17T09:18:08;19.70;99.90
61016;DHT22;46902;52.920;6.536;2023-08-17T09:20:45;19.70;99.90
61016;DHT22;46902;52.920;6.536;2023-08-17T09:25:41;19.70;99.90
61016;DHT22;46902;52.920;6.536;2023-08-17T09:28:12;19.70;99.90
61016;DHT22;46902;52.920;6.536;2023-08-17T09:30:58;19.70;99.90
61016;DHT22;46902;52.920;6.536;2023-08-17T09:33:29;19.70;99.90
61016;DHT22;46902;52.920;6.536;2023-08-17T09:35:56;19.70;99.90
61016;DHT22;46902;52.920;6.536;2023-08-17T09:38:23;19.80;99.90
61016;DHT22;46902;52.920;6.536;2023-08-17T09:40:49;19.90;99.90
61016;DHT22;46902;52.920;6.536;2023-08-17T09:43:15;19.90;99.90
61016;DHT22;46902;52.920;6.536;2023-08-17T09:45:43;20.00;99.90
61016;DHT22;46902;52.920;6.536;2023-08-17T09:48:14;20.10;99.90
61016;DHT22;46902;52.920;6.536;2023-08-17T09:50:40;20.10;99.90
61016;DHT22;46902;52.920;6.536;2023-08-17T09:53:05;20.00;99.90
61016;DHT22;46902;52.920;6.536;2023-08-17T09:55:31;20.00;99.90
61016;DHT22;46902;52.920;6.536;2023-08-17T09:57:59;20.00;99.90
61016;DHT22;46902;52.920;6.536;2023-08-17T10:00:27;19.90;99.90
61016;DHT22;46902;52.920;6.536;2023-08-17T10:02:53;19.90;99.90
61016;DHT22;46902;52.920;6.536;2023-08-17T10:05:20;20.00;99.90
61016;DHT22;46902;52.920;6.536;2023-08-17T10:07:54;20.00;99.90
61016;DHT22;46902;52.920;6.536;2023-08-17T10:10:26;20.00;99.90
61016;DHT22;46902;52.920;6.536;2023-08-17T10:13:11;20.10;99.90
61016;DHT22;46902;52.920;6.536;2023-08-17T10:15:45;20.20;99.90
61016;DHT22;46902;52.920;6.536;2023-08-17T10:21:10;20.30;99.90
61016;DHT22;46902;52.920;6.536;2023-08-17T10:23:37;20.40;99.90
61016;DHT22;46902;52.920;6.536;2023-08-17T10:26:04;20.50;99.90
61016;DHT22;46902;52.920;6.536;2023-08-17T10:28:31;20.60;99.90
61016;DHT22;46902;52.920;6.536;2023-08-17T10:30:58;20.70;99.90
61016;DHT22;46902;52.920;6.536;2023-08-17T10:33:25;20.80;99.90
61016;DHT22;46902;52.920;6.536;2023-08-17T10:35:51;20.80;99.90
61016;DHT22;46902;52.920;6.536;2023-08-17T10:38:17;20.80;99.90
61016;DHT22;46902;52.920;6.536;2023-08-17T10:40:43;20.70;99.90
61016;DHT22;46902;52.920;6.536;2023-08-17T10:43:09;20.70;99.90
61016;DHT22;46902;52.920;6.536;2023-08-17T10:45:37;20.70;99.90
61016;DHT22;46902;52.920;6.536;2023-08-17T10:50:33;20.60;99.90
61016;DHT22;46902;52.920;6.536;2023-08-17T10:53:05;20.60;99.90
61016;DHT22;46902;52.920;6.536;2023-08-17T10:55:37;20.60;99.90
61016;DHT22;46902;52.920;6.536;2023-08-17T10:58:04;20.70;99.90
61016;DHT22;46902;52.920;6.536;2023-08-17T11:00:37;20.80;99.90
61016;DHT22;46902;52.920;6.536;2023-08-17T11:03:07;20.90;99.90
61016;DHT22;46902;52.920;6.536;2023-08-17T11:05:34;21.00;99.90
61016;DHT22;46902;52.920;6.536;2023-08-17T11:08:01;20.90;99.90
61016;DHT22;46902;52.920;6.536;2023-08-17T11:10:28;20.80;99.90
61016;DHT22;46902;52.920;6.536;2023-08-17T11:12:55;20.80;99.90
61016;DHT22;46902;52.920;6.536;2023-08-17T11:15:25;20.70;99.90
61016;DHT22;46902;52.920;6.536;2023-08-17T11:17:52;20.60;99.90
61016;DHT22;46902;52.920;6.536;2023-08-17T11:20:18;20.60;99.90
61016;DHT22;46902;52.920;6.536;2023-08-17T11:22:45;20.60;99.90
61016;DHT22;46902;52.920;6.536;2023-08-17T11:25:11;20.60;99.90
61016;DHT22;46902;52.920;6.536;2023-08-17T11:27:37;20.50;99.90
61016;DHT22;46902;52.920;6.536;2023-08-17T11:30:03;20.50;99.90
61016;DHT22;46902;52.920;6.536;2023-08-17T11:32:29;20.60;99.90
61016;DHT22;46902;52.920;6.536;2023-08-17T11:34:55;20.50;99.90
61016;DHT22;46902;52.920;6.536;2023-08-17T11:37:21;20.50;99.90
61016;DHT22;46902;52.920;6.536;2023-08-17T11:39:47;20.50;99.90
61016;DHT22;46902;52.920;6.536;2023-08-17T11:42:12;20.50;99.90
61016;DHT22;46902;52.920;6.536;2023-08-17T11:44:38;20.60;99.90
61016;DHT22;46902;52.920;6.536;2023-08-17T11:47:05;20.60;99.90
61016;DHT22;46902;52.920;6.536;2023-08-17T11:49:32;20.60;99.90
61016;DHT22;46902;52.920;6.536;2023-08-17T11:51:57;20.70;99.90
61016;DHT22;46902;52.920;6.536;2023-08-17T11:54:23;20.80;99.90
61016;DHT22;46902;52.920;6.536;2023-08-17T11:56:48;20.80;99.90
61016;DHT22;46902;52.920;6.536;2023-08-17T11:59:14;20.80;99.90
61016;DHT22;46902;52.920;6.536;2023-08-17T12:01:43;20.80;99.90
61016;DHT22;46902;52.920;6.536;2023-08-17T12:04:09;21.00;99.90
61016;DHT22;46902;52.920;6.536;2023-08-17T12:06:37;21.00;99.90
61016;DHT22;46902;52.920;6.536;2023-08-17T12:09:07;21.10;99.90
61016;DHT22;46902;52.920;6.536;2023-08-17T12:11:34;21.10;99.90
61016;DHT22;46902;52.920;6.536;2023-08-17T12:14:08;21.10;99.90
61016;DHT22;46902;52.920;6.536;2023-08-17T12:16:44;21.20;99.90
61016;DHT22;46902;52.920;6.536;2023-08-17T12:19:10;21.10;99.90
61016;DHT22;46902;52.920;6.536;2023-08-17T12:21:35;21.10;99.90
61016;DHT22;46902;52.920;6.536;2023-08-17T12:24:04;21.10;99.90
61016;DHT22;46902;52.920;6.536;2023-08-17T12:26:29;21.20;99.90
61016;DHT22;46902;52.920;6.536;2023-08-17T12:28:58;21.20;99.90
61016;DHT22;46902;52.920;6.536;2023-08-17T12:31:23;21.20;99.90
61016;DHT22;46902;52.920;6.536;2023-08-17T12:33:50;21.30;99.90
61016;DHT22;46902;52.920;6.536;2023-08-17T12:36:15;21.30;99.90
61016;DHT22;46902;52.920;6.536;2023-08-17T12:38:42;21.30;99.90
61016;DHT22;46902;52.920;6.536;2023-08-17T12:41:10;21.30;99.90
61016;DHT22;46902;52.920;6.536;2023-08-17T12:43:37;21.30;99.90
61016;DHT22;46902;52.920;6.536;2023-08-17T12:46:03;21.30;99.90
61016;DHT22;46902;52.920;6.536;2023-08-17T12:48:28;21.30;99.90
61016;DHT22;46902;52.920;6.536;2023-08-17T12:50:54;21.30;99.90
61016;DHT22;46902;52.920;6.536;2023-08-17T12:53:19;21.20;99.90
61016;DHT22;46902;52.920;6.536;2023-08-17T12:55:45;21.20;99.90
61016;DHT22;46902;52.920;6.536;2023-08-17T12:58:11;21.30;99.90
61016;DHT22;46902;52.920;6.536;2023-08-17T13:00:36;21.40;99.90
61016;DHT22;46902;52.920;6.536;2023-08-17T13:03:02;21.50;99.90
61016;DHT22;46902;52.920;6.536;2023-08-17T13:05:27;21.60;99.90
61016;DHT22;46902;52.920;6.536;2023-08-17T13:07:53;21.70;99.90
61016;DHT22;46902;52.920;6.536;2023-08-17T13:10:19;21.90;99.90
61016;DHT22;46902;52.920;6.536;2023-08-17T13:12:44;22.10;99.90
61016;DHT22;46902;52.920;6.536;2023-08-17T13:15:12;22.30;99.90
61016;DHT22;46902;52.920;6.536;2023-08-17T13:17:38;22.30;99.90
61016;DHT22;46902;52.920;6.536;2023-08-17T13:20:04;22.30;99.90
61016;DHT22;46902;52.920;6.536;2023-08-17T13:22:31;22.30;99.90
61016;DHT22;46902;52.920;6.536;2023-08-17T13:24:57;22.20;99.90
61016;DHT22;46902;52.920;6.536;2023-08-17T13:27:23;22.10;99.90
61016;DHT22;46902;52.920;6.536;2023-08-17T13:29:49;22.00;99.90
61016;DHT22;46902;52.920;6.536;2023-08-17T13:32:14;21.90;99.90
61016;DHT22;46902;52.920;6.536;2023-08-17T13:34:40;22.00;99.90
61016;DHT22;46902;52.920;6.536;2023-08-17T13:37:05;22.00;99.90
61016;DHT22;46902;52.920;6.536;2023-08-17T13:39:31;22.00;99.90
61016;DHT22;46902;52.920;6.536;2023-08-17T13:41:57;21.90;99.90
61016;DHT22;46902;52.920;6.536;2023-08-17T13:44:23;21.90;99.90
61016;DHT22;46902;52.920;6.536;2023-08-17T13:46:49;21.80;99.90
61016;DHT22;46902;52.920;6.536;2023-08-17T13:49:14;21.80;99.90
61016;DHT22;46902;52.920;6.536;2023-08-17T13:51:40;21.80;99.90
61016;DHT22;46902;52.920;6.536;2023-08-17T13:54:06;21.80;99.90
61016;DHT22;46902;52.920;6.536;2023-08-17T13:56:31;21.70;99.90
61016;DHT22;46902;52.920;6.536;2023-08-17T13:58:57;21.60;99.90
61016;DHT22;46902;52.920;6.536;2023-08-17T14:01:22;21.50;99.90
61016;DHT22;46902;52.920;6.536;2023-08-17T14:03:48;21.50;99.90
61016;DHT22;46902;52.920;6.536;2023-08-17T14:06:14;21.40;99.90
61016;DHT22;46902;52.920;6.536;2023-08-17T14:08:40;21.30;99.90
61016;DHT22;46902;52.920;6.536;2023-08-17T14:11:06;21.30;99.90
61016;DHT22;46902;52.920;6.536;2023-08-17T14:13:32;21.20;99.90
61016;DHT22;46902;52.920;6.536;2023-08-17T14:15:58;21.20;99.90
61016;DHT22;46902;52.920;6.536;2023-08-17T14:18:25;21.10;99.90
61016;DHT22;46902;52.920;6.536;2023-08-17T14:20:50;21.10;99.90
61016;DHT22;46902;52.920;6.536;2023-08-17T14:23:16;21.00;99.90
61016;DHT22;46902;52.920;6.536;2023-08-17T14:25:41;21.10;99.90
61016;DHT22;46902;52.920;6.536;2023-08-17T14:28:07;21.00;99.90
61016;DHT22;46902;52.920;6.536;2023-08-17T14:30:33;21.00;99.90
61016;DHT22;46902;52.920;6.536;2023-08-17T14:32:59;21.00;99.90
61016;DHT22;46902;52.920;6.536;2023-08-17T14:35:26;21.00;99.90
61016;DHT22;46902;52.920;6.536;2023-08-17T14:37:52;21.00;99.90
61016;DHT22;46902;52.920;6.536;2023-08-17T14:40:18;21.00;99.90
61016;DHT22;46902;52.920;6.536;2023-08-17T14:42:44;21.10;99.90
61016;DHT22;46902;52.920;6.536;2023-08-17T14:45:11;21.10;99.90
61016;DHT22;46902;52.920;6.536;2023-08-17T14:47:36;21.10;99.90
61016;DHT22;46902;52.920;6.536;2023-08-17T14:50:02;21.00;99.90
61016;DHT22;46902;52.920;6.536;2023-08-17T14:52:28;21.00;99.90
61016;DHT22;46902;52.920;6.536;2023-08-17T14:54:54;21.00;99.90
61016;DHT22;46902;52.920;6.536;2023-08-17T14:57:20;21.00;99.90
61016;DHT22;46902;52.920;6.536;2023-08-17T14:59:46;21.00;99.90
61016;DHT22;46902;52.920;6.536;2023-08-17T15:02:11;21.10;99.90
61016;DHT22;46902;52.920;6.536;2023-08-17T15:04:39;21.10;99.90
61016;DHT22;46902;52.920;6.536;2023-08-17T15:07:05;21.10;99.90
61016;DHT22;46902;52.920;6.536;2023-08-17T15:09:40;21.10;99.90
61016;DHT22;46902;52.920;6.536;2023-08-17T15:12:05;21.10;99.90
61016;DHT22;46902;52.920;6.536;2023-08-17T15:14:31;21.00;99.90
61016;DHT22;46902;52.920;6.536;2023-08-17T15:16:57;21.10;99.90
61016;DHT22;46902;52.920;6.536;2023-08-17T15:19:22;21.10;99.90
61016;DHT22;46902;52.920;6.536;2023-08-17T15:21:48;21.00;99.90
61016;DHT22;46902;52.920;6.536;2023-08-17T15:24:13;21.00;99.90
61016;DHT22;46902;52.920;6.536;2023-08-17T15:26:39;21.10;99.90
61016;DHT22;46902;52.920;6.536;2023-08-17T15:29:05;21.10;99.90
61016;DHT22;46902;52.920;6.536;2023-08-17T15:31:31;21.10;99.90
61016;DHT22;46902;52.920;6.536;2023-08-17T15:33:57;21.10;99.90
61016;DHT22;46902;52.920;6.536;2023-08-17T15:36:22;21.10;99.90
61016;DHT22;46902;52.920;6.536;2023-08-17T15:38:50;21.00;99.90